sensor_id;sensor_type;location;lat;lon;timestamp;temperature;humidity
75296;DHT22;64623;44.738;37.804;2023-07-30T00:00:54;5.86;118.99
75296;DHT22;64623;44.738;37.804;2023-07-30T00:01:57;5.89;118.99
75296;DHT22;64623;44.738;37.804;2023-07-30T00:03:00;5.90;118.99
75296;DHT22;64623;44.738;37.804;2023-07-30T00:04:03;5.85;118.99
75296;DHT22;64623;44.738;37.804;2023-07-30T00:05:07;5.89;118.99
75296;DHT22;64623;44.738;37.804;2023-07-30T00:06:10;5.83;118.99
75296;DHT22;64623;44.738;37.804;2023-07-30T00:07:13;5.72;118.99
75296;DHT22;64623;44.738;37.804;2023-07-30T00:08:16;5.71;118.99
75296;DHT22;64623;44.738;37.804;2023-07-30T00:09:19;5.66;118.99
75296;DHT22;64623;44.738;37.804;2023-07-30T00:10:22;5.68;118.99
75296;DHT22;64623;44.738;37.804;2023-07-30T00:11:25;5.74;118.99
75296;DHT22;64623;44.738;37.804;2023-07-30T00:12:28;5.67;118.99
75296;DHT22;64623;44.738;37.804;2023-07-30T00:13:31;5.60;118.99
75296;DHT22;64623;44.738;37.804;2023-07-30T00:14:35;5.60;118.99
75296;DHT22;64623;44.738;37.804;2023-07-30T00:15:38;5.62;118.99
75296;DHT22;64623;44.738;37.804;2023-07-30T00:16:41;5.59;118.99
75296;DHT22;64623;44.738;37.804;2023-07-30T00:17:44;5.66;118.99
75296;DHT22;64623;44.738;37.804;2023-07-30T00:18:47;5.55;118.99
75296;DHT22;64623;44.738;37.804;2023-07-30T00:19:50;5.66;118.99
75296;DHT22;64623;44.738;37.804;2023-07-30T00:20:53;5.69;118.99
75296;DHT22;64623;44.738;37.804;2023-07-30T00:21:56;5.77;118.99
75296;DHT22;64623;44.738;37.804;2023-07-30T00:22:59;5.79;118.99
75296;DHT22;64623;44.738;37.804;2023-07-30T00:24:02;5.82;118.99
75296;DHT22;64623;44.738;37.804;2023-07-30T00:25:05;5.78;118.99
75296;DHT22;64623;44.738;37.804;2023-07-30T00:26:09;5.71;118.99
75296;DHT22;64623;44.738;37.804;2023-07-30T00:27:11;5.81;118.99
75296;DHT22;64623;44.738;37.804;2023-07-30T00:28:14;5.79;118.99
75296;DHT22;64623;44.738;37.804;2023-07-30T00:29:17;5.75;118.99
75296;DHT22;64623;44.738;37.804;2023-07-30T00:30:21;5.71;118.99
75296;DHT22;64623;44.738;37.804;2023-07-30T00:31:24;5.70;118.99
75296;DHT22;64623;44.738;37.804;2023-07-30T00:32:27;5.65;118.99
75296;DHT22;64623;44.738;37.804;2023-07-30T00:33:30;5.62;118.99
75296;DHT22;64623;44.738;37.804;2023-07-30T00:34:34;5.63;118.99
75296;DHT22;64623;44.738;37.804;2023-07-30T00:35:37;5.62;118.99
75296;DHT22;64623;44.738;37.804;2023-07-30T00:36:40;5.62;118.99
75296;DHT22;64623;44.738;37.804;2023-07-30T00:37:43;5.67;118.99
75296;DHT22;64623;44.738;37.804;2023-07-30T00:38:46;5.60;118.99
75296;DHT22;64623;44.738;37.804;2023-07-30T00:39:49;5.63;118.99
75296;DHT22;64623;44.738;37.804;2023-07-30T00:40:52;5.74;118.99
75296;DHT22;64623;44.738;37.804;2023-07-30T00:41:57;5.75;118.99
75296;DHT22;64623;44.738;37.804;2023-07-30T00:43:01;5.69;118.99
75296;DHT22;64623;44.738;37.804;2023-07-30T00:44:04;5.69;118.99
75296;DHT22;64623;44.738;37.804;2023-07-30T00:45:08;5.64;118.99
75296;DHT22;64623;44.738;37.804;2023-07-30T00:46:11;5.68;118.99
75296;DHT22;64623;44.738;37.804;2023-07-30T00:47:15;5.67;118.99
75296;DHT22;64623;44.738;37.804;2023-07-30T00:48:18;5.66;118.99
75296;DHT22;64623;44.738;37.804;2023-07-30T00:49:21;5.67;118.99
75296;DHT22;64623;44.738;37.804;2023-07-30T00:50:25;5.61;118.99
75296;DHT22;64623;44.738;37.804;2023-07-30T00:51:30;5.65;118.99
75296;DHT22;64623;44.738;37.804;2023-07-30T00:52:35;5.57;118.99
75296;DHT22;64623;44.738;37.804;2023-07-30T00:53:38;5.55;118.99
75296;DHT22;64623;44.738;37.804;2023-07-30T00:54:41;5.59;118.99
75296;DHT22;64623;44.738;37.804;2023-07-30T00:55:44;5.67;118.99
75296;DHT22;64623;44.738;37.804;2023-07-30T00:56:51;5.70;118.99
75296;DHT22;64623;44.738;37.804;2023-07-30T00:57:56;5.57;118.99
75296;DHT22;64623;44.738;37.804;2023-07-30T00:59:00;5.59;118.99
75296;DHT22;64623;44.738;37.804;2023-07-30T01:00:03;5.66;118.99
75296;DHT22;64623;44.738;37.804;2023-07-30T01:01:07;5.59;118.99
75296;DHT22;64623;44.738;37.804;2023-07-30T01:02:11;5.59;118.99
75296;DHT22;64623;44.738;37.804;2023-07-30T01:03:16;5.54;118.99
75296;DHT22;64623;44.738;37.804;2023-07-30T01:04:19;5.60;118.99
75296;DHT22;64623;44.738;37.804;2023-07-30T01:05:22;5.55;118.99
75296;DHT22;64623;44.738;37.804;2023-07-30T01:06:25;5.51;118.99
75296;DHT22;64623;44.738;37.804;2023-07-30T01:07:28;5.52;118.99
75296;DHT22;64623;44.738;37.804;2023-07-30T01:08:32;5.66;118.99
75296;DHT22;64623;44.738;37.804;2023-07-30T01:09:35;5.70;118.99
75296;DHT22;64623;44.738;37.804;2023-07-30T01:10:40;5.55;118.99
75296;DHT22;64623;44.738;37.804;2023-07-30T01:11:44;5.56;118.99
75296;DHT22;64623;44.738;37.804;2023-07-30T01:12:48;5.49;118.99
75296;DHT22;64623;44.738;37.804;2023-07-30T01:13:52;5.56;118.99
75296;DHT22;64623;44.738;37.804;2023-07-30T01:14:56;5.46;118.99
75296;DHT22;64623;44.738;37.804;2023-07-30T01:15:59;5.59;118.99
75296;DHT22;64623;44.738;37.804;2023-07-30T01:17:04;5.55;118.99
75296;DHT22;64623;44.738;37.804;2023-07-30T01:18:07;5.46;118.99
75296;DHT22;64623;44.738;37.804;2023-07-30T01:19:10;5.62;118.99
75296;DHT22;64623;44.738;37.804;2023-07-30T01:20:13;5.65;118.99
75296;DHT22;64623;44.738;37.804;2023-07-30T01:21:16;5.47;118.99
75296;DHT22;64623;44.738;37.804;2023-07-30T01:22:19;5.50;118.99
75296;DHT22;64623;44.738;37.804;2023-07-30T01:23:22;5.50;118.99
75296;DHT22;64623;44.738;37.804;2023-07-30T01:24:25;5.47;118.99
75296;DHT22;64623;44.738;37.804;2023-07-30T01:25:30;5.47;118.99
75296;DHT22;64623;44.738;37.804;2023-07-30T01:27:50;5.41;118.99
75296;DHT22;64623;44.738;37.804;2023-07-30T01:28:56;5.61;118.99
75296;DHT22;64623;44.738;37.804;2023-07-30T01:30:14;5.47;118.99
75296;DHT22;64623;44.738;37.804;2023-07-30T01:39:08;5.60;118.99
75296;DHT22;64623;44.738;37.804;2023-07-30T01:40:12;5.51;118.99
75296;DHT22;64623;44.738;37.804;2023-07-30T01:44:24;5.55;118.99
75296;DHT22;64623;44.738;37.804;2023-07-30T01:45:27;5.52;118.99
75296;DHT22;64623;44.738;37.804;2023-07-30T01:46:36;5.49;118.99
75296;DHT22;64623;44.738;37.804;2023-07-30T01:47:39;5.43;118.99
75296;DHT22;64623;44.738;37.804;2023-07-30T01:48:42;5.26;118.99
75296;DHT22;64623;44.738;37.804;2023-07-30T01:49:45;5.35;118.99
75296;DHT22;64623;44.738;37.804;2023-07-30T01:50:53;5.36;118.99
75296;DHT22;64623;44.738;37.804;2023-07-30T01:51:56;5.40;118.99
75296;DHT22;64623;44.738;37.804;2023-07-30T01:52:59;5.41;118.99
75296;DHT22;64623;44.738;37.804;2023-07-30T01:54:02;5.32;118.99
75296;DHT22;64623;44.738;37.804;2023-07-30T01:55:06;5.48;118.99
75296;DHT22;64623;44.738;37.804;2023-07-30T01:56:09;5.39;118.99
75296;DHT22;64623;44.738;37.804;2023-07-30T01:57:12;5.39;118.99
75296;DHT22;64623;44.738;37.804;2023-07-30T01:58:15;5.41;118.99
75296;DHT22;64623;44.738;37.804;2023-07-30T01:59:18;5.42;118.99
75296;DHT22;64623;44.738;37.804;2023-07-30T02:00:27;5.34;118.99
75296;DHT22;64623;44.738;37.804;2023-07-30T02:01:38;5.38;118.99
75296;DHT22;64623;44.738;37.804;2023-07-30T02:02:41;5.31;118.99
75296;DHT22;64623;44.738;37.804;2023-07-30T02:03:45;5.50;118.99
75296;DHT22;64623;44.738;37.804;2023-07-30T02:04:48;5.52;118.99
75296;DHT22;64623;44.738;37.804;2023-07-30T02:05:51;5.47;118.99
75296;DHT22;64623;44.738;37.804;2023-07-30T02:06:54;5.36;118.99
75296;DHT22;64623;44.738;37.804;2023-07-30T02:07:58;5.51;118.99
75296;DHT22;64623;44.738;37.804;2023-07-30T02:09:01;5.43;118.99
75296;DHT22;64623;44.738;37.804;2023-07-30T02:10:05;5.42;118.99
75296;DHT22;64623;44.738;37.804;2023-07-30T02:11:08;5.56;118.99
75296;DHT22;64623;44.738;37.804;2023-07-30T02:12:11;5.41;118.99
75296;DHT22;64623;44.738;37.804;2023-07-30T02:13:14;5.43;118.99
75296;DHT22;64623;44.738;37.804;2023-07-30T02:14:19;5.37;118.99
75296;DHT22;64623;44.738;37.804;2023-07-30T02:15:24;5.33;118.99
75296;DHT22;64623;44.738;37.804;2023-07-30T02:16:27;5.36;118.99
75296;DHT22;64623;44.738;37.804;2023-07-30T02:17:30;5.38;118.99
75296;DHT22;64623;44.738;37.804;2023-07-30T02:18:53;5.30;118.99
75296;DHT22;64623;44.738;37.804;2023-07-30T02:19:56;5.34;118.99
75296;DHT22;64623;44.738;37.804;2023-07-30T02:20:59;5.33;118.99
75296;DHT22;64623;44.738;37.804;2023-07-30T02:22:02;5.38;118.99
75296;DHT22;64623;44.738;37.804;2023-07-30T02:23:05;5.35;118.99
75296;DHT22;64623;44.738;37.804;2023-07-30T02:24:09;5.43;118.99
75296;DHT22;64623;44.738;37.804;2023-07-30T02:25:14;5.56;118.99
75296;DHT22;64623;44.738;37.804;2023-07-30T02:26:17;5.64;118.99
75296;DHT22;64623;44.738;37.804;2023-07-30T02:27:20;5.70;118.99
75296;DHT22;64623;44.738;37.804;2023-07-30T02:28:23;5.74;118.99
75296;DHT22;64623;44.738;37.804;2023-07-30T02:29:27;5.82;118.99
75296;DHT22;64623;44.738;37.804;2023-07-30T02:30:33;5.90;118.99
75296;DHT22;64623;44.738;37.804;2023-07-30T02:31:36;5.87;118.99
75296;DHT22;64623;44.738;37.804;2023-07-30T02:32:39;5.83;118.99
75296;DHT22;64623;44.738;37.804;2023-07-30T02:33:44;5.65;118.99
75296;DHT22;64623;44.738;37.804;2023-07-30T02:34:47;5.61;118.99
75296;DHT22;64623;44.738;37.804;2023-07-30T02:35:50;5.77;118.99
75296;DHT22;64623;44.738;37.804;2023-07-30T02:36:53;5.74;118.99
75296;DHT22;64623;44.738;37.804;2023-07-30T02:37:56;5.77;118.99
75296;DHT22;64623;44.738;37.804;2023-07-30T02:39:04;5.66;118.99
75296;DHT22;64623;44.738;37.804;2023-07-30T02:40:07;5.65;118.99
75296;DHT22;64623;44.738;37.804;2023-07-30T02:41:11;5.59;118.99
75296;DHT22;64623;44.738;37.804;2023-07-30T02:42:14;5.76;118.99
75296;DHT22;64623;44.738;37.804;2023-07-30T02:43:16;5.72;118.99
75296;DHT22;64623;44.738;37.804;2023-07-30T02:44:19;5.67;118.99
75296;DHT22;64623;44.738;37.804;2023-07-30T02:45:23;5.68;118.99
75296;DHT22;64623;44.738;37.804;2023-07-30T02:46:25;5.72;118.99
75296;DHT22;64623;44.738;37.804;2023-07-30T02:47:28;5.76;118.99
75296;DHT22;64623;44.738;37.804;2023-07-30T02:48:31;5.74;118.99
75296;DHT22;64623;44.738;37.804;2023-07-30T02:49:34;5.71;118.99
75296;DHT22;64623;44.738;37.804;2023-07-30T02:50:37;5.71;118.99
75296;DHT22;64623;44.738;37.804;2023-07-30T02:51:40;5.80;118.99
75296;DHT22;64623;44.738;37.804;2023-07-30T02:52:45;5.81;118.99
75296;DHT22;64623;44.738;37.804;2023-07-30T02:53:52;5.84;118.99
75296;DHT22;64623;44.738;37.804;2023-07-30T02:54:56;5.64;118.99
75296;DHT22;64623;44.738;37.804;2023-07-30T02:55:59;5.67;118.99
75296;DHT22;64623;44.738;37.804;2023-07-30T02:57:02;5.77;118.99
75296;DHT22;64623;44.738;37.804;2023-07-30T02:58:05;5.82;118.99
75296;DHT22;64623;44.738;37.804;2023-07-30T02:59:08;5.85;118.99
75296;DHT22;64623;44.738;37.804;2023-07-30T03:00:11;5.94;118.99
75296;DHT22;64623;44.738;37.804;2023-07-30T03:01:14;5.91;118.99
75296;DHT22;64623;44.738;37.804;2023-07-30T03:02:17;5.83;118.99
75296;DHT22;64623;44.738;37.804;2023-07-30T03:03:21;5.86;118.99
75296;DHT22;64623;44.738;37.804;2023-07-30T03:04:24;5.83;118.99
75296;DHT22;64623;44.738;37.804;2023-07-30T03:05:27;5.81;118.99
75296;DHT22;64623;44.738;37.804;2023-07-30T03:06:31;5.79;118.99
75296;DHT22;64623;44.738;37.804;2023-07-30T03:07:35;5.81;118.99
75296;DHT22;64623;44.738;37.804;2023-07-30T03:08:38;5.81;118.99
75296;DHT22;64623;44.738;37.804;2023-07-30T03:09:41;5.91;118.99
75296;DHT22;64623;44.738;37.804;2023-07-30T03:10:44;5.80;118.99
75296;DHT22;64623;44.738;37.804;2023-07-30T03:11:47;5.86;118.99
75296;DHT22;64623;44.738;37.804;2023-07-30T03:12:50;5.93;118.99
75296;DHT22;64623;44.738;37.804;2023-07-30T03:13:53;5.94;118.99
75296;DHT22;64623;44.738;37.804;2023-07-30T03:14:56;5.87;118.99
75296;DHT22;64623;44.738;37.804;2023-07-30T03:15:59;5.97;118.99
75296;DHT22;64623;44.738;37.804;2023-07-30T03:17:02;5.98;118.99
75296;DHT22;64623;44.738;37.804;2023-07-30T03:18:07;5.99;118.99
75296;DHT22;64623;44.738;37.804;2023-07-30T03:19:10;6.01;118.99
75296;DHT22;64623;44.738;37.804;2023-07-30T03:20:14;6.11;118.99
75296;DHT22;64623;44.738;37.804;2023-07-30T03:21:17;6.14;118.99
75296;DHT22;64623;44.738;37.804;2023-07-30T03:22:20;6.26;118.99
75296;DHT22;64623;44.738;37.804;2023-07-30T03:23:28;6.15;118.99
75296;DHT22;64623;44.738;37.804;2023-07-30T03:24:32;6.11;118.99
75296;DHT22;64623;44.738;37.804;2023-07-30T03:25:35;6.15;118.99
75296;DHT22;64623;44.738;37.804;2023-07-30T03:26:38;6.22;118.99
75296;DHT22;64623;44.738;37.804;2023-07-30T03:27:41;6.23;118.99
75296;DHT22;64623;44.738;37.804;2023-07-30T03:28:44;6.33;118.99
75296;DHT22;64623;44.738;37.804;2023-07-30T03:29:47;6.45;118.99
75296;DHT22;64623;44.738;37.804;2023-07-30T03:30:50;6.37;118.99
75296;DHT22;64623;44.738;37.804;2023-07-30T03:31:53;6.48;118.99
75296;DHT22;64623;44.738;37.804;2023-07-30T03:32:56;6.54;118.99
75296;DHT22;64623;44.738;37.804;2023-07-30T03:33:59;6.54;118.99
75296;DHT22;64623;44.738;37.804;2023-07-30T03:35:02;6.57;118.99
75296;DHT22;64623;44.738;37.804;2023-07-30T03:36:05;6.73;118.99
75296;DHT22;64623;44.738;37.804;2023-07-30T03:37:08;6.70;118.99
75296;DHT22;64623;44.738;37.804;2023-07-30T03:38:11;6.86;118.99
75296;DHT22;64623;44.738;37.804;2023-07-30T03:39:16;6.88;118.99
75296;DHT22;64623;44.738;37.804;2023-07-30T03:40:19;6.79;118.99
75296;DHT22;64623;44.738;37.804;2023-07-30T03:41:23;6.95;118.99
75296;DHT22;64623;44.738;37.804;2023-07-30T03:42:28;7.03;118.99
75296;DHT22;64623;44.738;37.804;2023-07-30T03:43:31;6.98;118.99
75296;DHT22;64623;44.738;37.804;2023-07-30T03:44:34;7.01;118.99
75296;DHT22;64623;44.738;37.804;2023-07-30T03:45:37;7.01;118.99
75296;DHT22;64623;44.738;37.804;2023-07-30T03:46:45;7.03;118.99
75296;DHT22;64623;44.738;37.804;2023-07-30T03:47:49;7.09;118.99
75296;DHT22;64623;44.738;37.804;2023-07-30T03:48:53;7.17;118.99
75296;DHT22;64623;44.738;37.804;2023-07-30T03:49:56;7.22;118.99
75296;DHT22;64623;44.738;37.804;2023-07-30T03:51:01;7.22;118.99
75296;DHT22;64623;44.738;37.804;2023-07-30T03:52:10;7.25;118.99
75296;DHT22;64623;44.738;37.804;2023-07-30T03:53:13;7.29;118.99
75296;DHT22;64623;44.738;37.804;2023-07-30T03:54:16;7.31;118.99
75296;DHT22;64623;44.738;37.804;2023-07-30T03:55:19;7.37;118.99
75296;DHT22;64623;44.738;37.804;2023-07-30T03:56:25;7.38;118.99
75296;DHT22;64623;44.738;37.804;2023-07-30T03:57:29;7.47;118.99
75296;DHT22;64623;44.738;37.804;2023-07-30T03:58:33;7.47;118.99
75296;DHT22;64623;44.738;37.804;2023-07-30T03:59:36;7.54;118.99
75296;DHT22;64623;44.738;37.804;2023-07-30T04:00:45;7.49;118.99
75296;DHT22;64623;44.738;37.804;2023-07-30T04:01:48;7.56;118.99
75296;DHT22;64623;44.738;37.804;2023-07-30T04:02:51;7.56;118.99
75296;DHT22;64623;44.738;37.804;2023-07-30T04:03:55;7.61;118.99
75296;DHT22;64623;44.738;37.804;2023-07-30T04:04:58;7.55;118.99
75296;DHT22;64623;44.738;37.804;2023-07-30T04:06:02;7.63;118.99
75296;DHT22;64623;44.738;37.804;2023-07-30T04:07:04;7.86;118.99
75296;DHT22;64623;44.738;37.804;2023-07-30T04:08:08;7.87;118.99
75296;DHT22;64623;44.738;37.804;2023-07-30T04:09:11;7.90;118.99
75296;DHT22;64623;44.738;37.804;2023-07-30T04:10:14;7.83;118.99
75296;DHT22;64623;44.738;37.804;2023-07-30T04:11:17;7.97;118.99
75296;DHT22;64623;44.738;37.804;2023-07-30T04:12:20;7.98;118.99
75296;DHT22;64623;44.738;37.804;2023-07-30T04:13:25;8.01;118.99
75296;DHT22;64623;44.738;37.804;2023-07-30T04:14:28;8.05;118.99
75296;DHT22;64623;44.738;37.804;2023-07-30T04:15:30;8.12;118.99
75296;DHT22;64623;44.738;37.804;2023-07-30T04:16:33;8.11;118.99
75296;DHT22;64623;44.738;37.804;2023-07-30T04:17:37;8.21;118.99
75296;DHT22;64623;44.738;37.804;2023-07-30T04:18:40;8.18;118.99
75296;DHT22;64623;44.738;37.804;2023-07-30T04:19:43;8.29;118.99
75296;DHT22;64623;44.738;37.804;2023-07-30T04:20:46;8.23;118.99
75296;DHT22;64623;44.738;37.804;2023-07-30T04:21:49;8.34;118.99
75296;DHT22;64623;44.738;37.804;2023-07-30T04:22:53;8.34;118.99
75296;DHT22;64623;44.738;37.804;2023-07-30T04:23:56;8.33;118.99
75296;DHT22;64623;44.738;37.804;2023-07-30T04:24:59;8.49;118.99
75296;DHT22;64623;44.738;37.804;2023-07-30T04:26:02;8.64;118.99
75296;DHT22;64623;44.738;37.804;2023-07-30T04:27:06;8.52;118.99
75296;DHT22;64623;44.738;37.804;2023-07-30T04:28:09;8.70;118.99
75296;DHT22;64623;44.738;37.804;2023-07-30T04:29:12;8.76;118.99
75296;DHT22;64623;44.738;37.804;2023-07-30T04:30:16;8.90;118.99
75296;DHT22;64623;44.738;37.804;2023-07-30T04:31:19;8.92;118.99
75296;DHT22;64623;44.738;37.804;2023-07-30T04:32:22;9.01;118.99
75296;DHT22;64623;44.738;37.804;2023-07-30T04:33:25;9.01;118.99
75296;DHT22;64623;44.738;37.804;2023-07-30T04:34:29;9.10;118.99
75296;DHT22;64623;44.738;37.804;2023-07-30T04:35:32;9.27;118.99
75296;DHT22;64623;44.738;37.804;2023-07-30T04:36:35;9.30;118.99
75296;DHT22;64623;44.738;37.804;2023-07-30T04:37:38;9.40;118.99
75296;DHT22;64623;44.738;37.804;2023-07-30T04:38:41;9.35;118.99
75296;DHT22;64623;44.738;37.804;2023-07-30T04:39:44;9.23;118.99
75296;DHT22;64623;44.738;37.804;2023-07-30T04:40:48;9.24;118.99
75296;DHT22;64623;44.738;37.804;2023-07-30T04:41:51;9.25;118.99
75296;DHT22;64623;44.738;37.804;2023-07-30T04:42:54;9.22;118.99
75296;DHT22;64623;44.738;37.804;2023-07-30T04:43:57;9.31;118.99
75296;DHT22;64623;44.738;37.804;2023-07-30T04:45:02;9.44;118.99
75296;DHT22;64623;44.738;37.804;2023-07-30T04:46:12;9.57;118.99
75296;DHT22;64623;44.738;37.804;2023-07-30T04:47:15;9.63;118.99
75296;DHT22;64623;44.738;37.804;2023-07-30T04:48:18;9.54;118.99
75296;DHT22;64623;44.738;37.804;2023-07-30T04:49:21;9.50;118.99
75296;DHT22;64623;44.738;37.804;2023-07-30T04:50:29;9.53;118.99
75296;DHT22;64623;44.738;37.804;2023-07-30T04:51:39;9.70;118.99
75296;DHT22;64623;44.738;37.804;2023-07-30T04:52:43;9.66;118.99
75296;DHT22;64623;44.738;37.804;2023-07-30T04:53:51;9.68;118.99
75296;DHT22;64623;44.738;37.804;2023-07-30T04:54:54;9.65;118.99
75296;DHT22;64623;44.738;37.804;2023-07-30T04:56:05;9.88;118.99
75296;DHT22;64623;44.738;37.804;2023-07-30T04:57:09;10.03;118.99
75296;DHT22;64623;44.738;37.804;2023-07-30T04:58:12;9.97;118.99
75296;DHT22;64623;44.738;37.804;2023-07-30T04:59:15;9.94;118.99
75296;DHT22;64623;44.738;37.804;2023-07-30T05:00:18;10.11;118.99
75296;DHT22;64623;44.738;37.804;2023-07-30T05:01:23;10.21;118.99
75296;DHT22;64623;44.738;37.804;2023-07-30T05:02:27;10.35;118.99
75296;DHT22;64623;44.738;37.804;2023-07-30T05:03:30;10.13;118.99
75296;DHT22;64623;44.738;37.804;2023-07-30T05:04:33;10.10;118.99
75296;DHT22;64623;44.738;37.804;2023-07-30T05:05:36;10.10;118.99
75296;DHT22;64623;44.738;37.804;2023-07-30T05:06:39;10.18;118.99
75296;DHT22;64623;44.738;37.804;2023-07-30T05:07:42;10.25;118.99
75296;DHT22;64623;44.738;37.804;2023-07-30T05:08:45;10.34;118.99
75296;DHT22;64623;44.738;37.804;2023-07-30T05:09:47;10.40;118.99
75296;DHT22;64623;44.738;37.804;2023-07-30T05:10:50;10.65;118.99
75296;DHT22;64623;44.738;37.804;2023-07-30T05:11:53;10.59;118.99
75296;DHT22;64623;44.738;37.804;2023-07-30T05:12:57;10.58;118.99
75296;DHT22;64623;44.738;37.804;2023-07-30T05:14:00;10.53;118.99
75296;DHT22;64623;44.738;37.804;2023-07-30T05:15:03;10.62;118.99
75296;DHT22;64623;44.738;37.804;2023-07-30T05:16:06;10.60;118.99
75296;DHT22;64623;44.738;37.804;2023-07-30T05:17:09;10.58;118.99
75296;DHT22;64623;44.738;37.804;2023-07-30T05:18:12;10.59;118.99
75296;DHT22;64623;44.738;37.804;2023-07-30T05:19:16;10.71;118.99
75296;DHT22;64623;44.738;37.804;2023-07-30T05:20:19;10.84;118.99
75296;DHT22;64623;44.738;37.804;2023-07-30T05:21:22;10.88;118.99
75296;DHT22;64623;44.738;37.804;2023-07-30T05:22:25;11.11;118.99
75296;DHT22;64623;44.738;37.804;2023-07-30T05:23:34;11.13;118.99
75296;DHT22;64623;44.738;37.804;2023-07-30T05:24:37;11.11;118.99
75296;DHT22;64623;44.738;37.804;2023-07-30T05:25:40;11.03;118.99
75296;DHT22;64623;44.738;37.804;2023-07-30T05:26:43;11.02;118.99
75296;DHT22;64623;44.738;37.804;2023-07-30T05:27:46;11.10;118.99
75296;DHT22;64623;44.738;37.804;2023-07-30T05:28:49;11.13;118.99
75296;DHT22;64623;44.738;37.804;2023-07-30T05:29:52;11.10;118.99
75296;DHT22;64623;44.738;37.804;2023-07-30T05:30:55;11.04;118.99
75296;DHT22;64623;44.738;37.804;2023-07-30T05:31:58;11.15;118.99
75296;DHT22;64623;44.738;37.804;2023-07-30T05:33:01;11.20;118.99
75296;DHT22;64623;44.738;37.804;2023-07-30T05:34:05;11.38;118.99
75296;DHT22;64623;44.738;37.804;2023-07-30T05:35:08;11.46;118.99
75296;DHT22;64623;44.738;37.804;2023-07-30T05:36:11;11.46;118.99
75296;DHT22;64623;44.738;37.804;2023-07-30T05:37:19;11.49;118.99
75296;DHT22;64623;44.738;37.804;2023-07-30T05:38:22;11.55;118.99
75296;DHT22;64623;44.738;37.804;2023-07-30T05:39:25;11.43;118.99
75296;DHT22;64623;44.738;37.804;2023-07-30T05:40:28;11.40;118.99
75296;DHT22;64623;44.738;37.804;2023-07-30T05:41:31;11.39;118.99
75296;DHT22;64623;44.738;37.804;2023-07-30T05:42:34;11.46;118.99
75296;DHT22;64623;44.738;37.804;2023-07-30T05:43:38;11.47;118.99
75296;DHT22;64623;44.738;37.804;2023-07-30T05:44:41;11.55;118.99
75296;DHT22;64623;44.738;37.804;2023-07-30T05:45:44;11.58;118.99
75296;DHT22;64623;44.738;37.804;2023-07-30T05:46:47;11.56;118.99
75296;DHT22;64623;44.738;37.804;2023-07-30T05:47:50;11.67;118.99
75296;DHT22;64623;44.738;37.804;2023-07-30T05:48:53;11.75;118.99
75296;DHT22;64623;44.738;37.804;2023-07-30T05:49:56;11.70;118.99
75296;DHT22;64623;44.738;37.804;2023-07-30T05:50:59;11.62;118.99
75296;DHT22;64623;44.738;37.804;2023-07-30T05:52:02;11.58;118.99
75296;DHT22;64623;44.738;37.804;2023-07-30T05:53:05;11.64;118.99
75296;DHT22;64623;44.738;37.804;2023-07-30T05:54:08;11.74;118.99
75296;DHT22;64623;44.738;37.804;2023-07-30T05:55:11;11.85;118.99
75296;DHT22;64623;44.738;37.804;2023-07-30T05:56:14;11.94;118.99
75296;DHT22;64623;44.738;37.804;2023-07-30T05:57:21;11.96;118.99
75296;DHT22;64623;44.738;37.804;2023-07-30T05:58:24;12.02;118.99
75296;DHT22;64623;44.738;37.804;2023-07-30T05:59:27;12.08;118.99
75296;DHT22;64623;44.738;37.804;2023-07-30T06:00:30;11.99;118.99
75296;DHT22;64623;44.738;37.804;2023-07-30T06:01:33;11.85;118.99
75296;DHT22;64623;44.738;37.804;2023-07-30T06:02:36;11.83;118.99
75296;DHT22;64623;44.738;37.804;2023-07-30T06:03:39;11.76;118.99
75296;DHT22;64623;44.738;37.804;2023-07-30T06:04:42;11.72;118.99
75296;DHT22;64623;44.738;37.804;2023-07-30T06:05:45;11.82;118.99
75296;DHT22;64623;44.738;37.804;2023-07-30T06:06:48;11.82;118.99
75296;DHT22;64623;44.738;37.804;2023-07-30T06:07:51;11.83;118.99
75296;DHT22;64623;44.738;37.804;2023-07-30T06:08:54;11.74;118.99
75296;DHT22;64623;44.738;37.804;2023-07-30T06:09:57;11.72;118.99
75296;DHT22;64623;44.738;37.804;2023-07-30T06:11:02;11.85;118.99
75296;DHT22;64623;44.738;37.804;2023-07-30T06:12:06;11.85;118.99
75296;DHT22;64623;44.738;37.804;2023-07-30T06:13:13;11.66;118.99
75296;DHT22;64623;44.738;37.804;2023-07-30T06:14:16;11.49;118.99
75296;DHT22;64623;44.738;37.804;2023-07-30T06:15:20;11.42;118.99
75296;DHT22;64623;44.738;37.804;2023-07-30T06:16:23;11.40;118.99
75296;DHT22;64623;44.738;37.804;2023-07-30T06:17:26;11.25;118.99
75296;DHT22;64623;44.738;37.804;2023-07-30T06:18:29;11.19;118.99
75296;DHT22;64623;44.738;37.804;2023-07-30T06:19:32;11.15;118.99
75296;DHT22;64623;44.738;37.804;2023-07-30T06:20:36;11.08;118.99
75296;DHT22;64623;44.738;37.804;2023-07-30T06:21:39;11.03;118.99
75296;DHT22;64623;44.738;37.804;2023-07-30T06:22:42;11.11;118.99
75296;DHT22;64623;44.738;37.804;2023-07-30T06:23:45;11.17;118.99
75296;DHT22;64623;44.738;37.804;2023-07-30T06:24:48;11.30;118.99
75296;DHT22;64623;44.738;37.804;2023-07-30T06:25:51;11.46;118.99
75296;DHT22;64623;44.738;37.804;2023-07-30T06:26:54;11.55;118.99
75296;DHT22;64623;44.738;37.804;2023-07-30T06:27:57;11.72;118.99
75296;DHT22;64623;44.738;37.804;2023-07-30T06:29:01;11.48;118.99
75296;DHT22;64623;44.738;37.804;2023-07-30T06:30:05;11.58;118.99
75296;DHT22;64623;44.738;37.804;2023-07-30T06:31:08;11.62;118.99
75296;DHT22;64623;44.738;37.804;2023-07-30T06:32:11;11.71;118.99
75296;DHT22;64623;44.738;37.804;2023-07-30T06:33:14;11.89;118.99
75296;DHT22;64623;44.738;37.804;2023-07-30T06:34:20;12.15;118.99
75296;DHT22;64623;44.738;37.804;2023-07-30T06:35:23;12.02;118.99
75296;DHT22;64623;44.738;37.804;2023-07-30T06:36:26;12.17;118.99
75296;DHT22;64623;44.738;37.804;2023-07-30T06:37:29;12.12;118.99
75296;DHT22;64623;44.738;37.804;2023-07-30T06:38:32;12.08;118.99
75296;DHT22;64623;44.738;37.804;2023-07-30T06:39:36;12.20;118.99
75296;DHT22;64623;44.738;37.804;2023-07-30T06:40:39;12.32;118.99
75296;DHT22;64623;44.738;37.804;2023-07-30T06:41:42;12.32;118.99
75296;DHT22;64623;44.738;37.804;2023-07-30T06:42:46;12.37;118.99
75296;DHT22;64623;44.738;37.804;2023-07-30T06:43:50;12.23;118.99
75296;DHT22;64623;44.738;37.804;2023-07-30T06:44:53;11.99;118.99
75296;DHT22;64623;44.738;37.804;2023-07-30T06:45:56;12.32;118.99
75296;DHT22;64623;44.738;37.804;2023-07-30T06:46:59;12.45;118.99